X  Close Metar Aviation Weather Data        LEGR Granada
Temperature
13°C Temperature
10°C Dewpoint
82% Humidity



Wind
7 KM/H
5 MPH
2 M/S
4 KTS



250°
WSW
Current Conditions

Mostly Clear Mostly Clear
Pressure 1019 (hPa) - 30.08 (inHg)
Visibility 30 (mile) - 48 (km)
Airport
Airport-code LEGR

Location: Granada
Distance: 56 (km)

Metar:
METAR LEGR 112130Z 25004KT 9999 FEW050 13/10 Q1019

Time: 11-04-2021 23:30 CEST